sensor_id;sensor_type;location;lat;lon;timestamp;P1;durP1;ratioP1;P2;durP2;ratioP2
17141;SDS011;32805;53.556;9.944;2022-12-07T00:01:44;19.10;;;12.23;;
17141;SDS011;32805;53.556;9.944;2022-12-07T00:04:14;17.45;;;13.15;;
17141;SDS011;32805;53.556;9.944;2022-12-07T00:06:43;19.60;;;14.45;;
17141;SDS011;32805;53.556;9.944;2022-12-07T00:09:14;18.38;;;14.43;;
17141;SDS011;32805;53.556;9.944;2022-12-07T00:11:47;19.88;;;13.27;;
17141;SDS011;32805;53.556;9.944;2022-12-07T00:14:17;18.77;;;12.07;;
17141;SDS011;32805;53.556;9.944;2022-12-07T00:16:48;18.75;;;12.95;;
17141;SDS011;32805;53.556;9.944;2022-12-07T00:19:17;18.38;;;12.45;;
17141;SDS011;32805;53.556;9.944;2022-12-07T00:21:46;20.52;;;13.02;;
17141;SDS011;32805;53.556;9.944;2022-12-07T00:24:14;17.15;;;12.23;;
17141;SDS011;32805;53.556;9.944;2022-12-07T00:26:42;18.88;;;13.32;;
17141;SDS011;32805;53.556;9.944;2022-12-07T00:29:13;18.27;;;12.75;;
17141;SDS011;32805;53.556;9.944;2022-12-07T00:31:44;17.48;;;11.55;;
17141;SDS011;32805;53.556;9.944;2022-12-07T00:34:13;19.88;;;12.73;;
17141;SDS011;32805;53.556;9.944;2022-12-07T00:36:41;15.07;;;11.48;;
17141;SDS011;32805;53.556;9.944;2022-12-07T00:39:09;19.08;;;12.30;;
17141;SDS011;32805;53.556;9.944;2022-12-07T00:41:37;14.80;;;10.43;;
17141;SDS011;32805;53.556;9.944;2022-12-07T00:44:05;19.25;;;12.80;;
17141;SDS011;32805;53.556;9.944;2022-12-07T00:46:34;19.48;;;11.63;;
17141;SDS011;32805;53.556;9.944;2022-12-07T00:49:02;14.60;;;10.90;;
17141;SDS011;32805;53.556;9.944;2022-12-07T00:51:29;13.57;;;10.65;;
17141;SDS011;32805;53.556;9.944;2022-12-07T00:53:57;16.30;;;11.10;;
17141;SDS011;32805;53.556;9.944;2022-12-07T00:56:26;14.10;;;10.95;;
17141;SDS011;32805;53.556;9.944;2022-12-07T00:58:55;15.93;;;10.95;;
17141;SDS011;32805;53.556;9.944;2022-12-07T01:01:25;13.90;;;9.82;;
17141;SDS011;32805;53.556;9.944;2022-12-07T01:03:57;14.73;;;10.52;;
17141;SDS011;32805;53.556;9.944;2022-12-07T01:06:30;14.25;;;10.18;;
17141;SDS011;32805;53.556;9.944;2022-12-07T01:09:01;12.80;;;9.10;;
17141;SDS011;32805;53.556;9.944;2022-12-07T01:11:30;16.50;;;10.10;;
17141;SDS011;32805;53.556;9.944;2022-12-07T01:13:59;11.60;;;8.90;;
17141;SDS011;32805;53.556;9.944;2022-12-07T01:16:29;14.57;;;9.57;;
17141;SDS011;32805;53.556;9.944;2022-12-07T01:18:59;13.32;;;8.93;;
17141;SDS011;32805;53.556;9.944;2022-12-07T01:21:28;16.10;;;9.68;;
17141;SDS011;32805;53.556;9.944;2022-12-07T01:24:01;15.77;;;9.98;;
17141;SDS011;32805;53.556;9.944;2022-12-07T01:26:29;16.08;;;9.18;;
17141;SDS011;32805;53.556;9.944;2022-12-07T01:28:57;12.45;;;8.77;;
17141;SDS011;32805;53.556;9.944;2022-12-07T01:31:27;16.75;;;10.20;;
17141;SDS011;32805;53.556;9.944;2022-12-07T01:33:56;15.45;;;10.82;;
17141;SDS011;32805;53.556;9.944;2022-12-07T01:36:27;13.20;;;9.02;;
17141;SDS011;32805;53.556;9.944;2022-12-07T01:38:57;15.98;;;10.07;;
17141;SDS011;32805;53.556;9.944;2022-12-07T01:41:27;15.32;;;9.70;;
17141;SDS011;32805;53.556;9.944;2022-12-07T01:46:51;19.15;;;9.90;;
17141;SDS011;32805;53.556;9.944;2022-12-07T01:49:22;14.70;;;9.68;;
17141;SDS011;32805;53.556;9.944;2022-12-07T01:51:56;12.80;;;8.57;;
17141;SDS011;32805;53.556;9.944;2022-12-07T01:54:28;16.33;;;9.82;;
17141;SDS011;32805;53.556;9.944;2022-12-07T01:56:56;12.13;;;9.18;;
17141;SDS011;32805;53.556;9.944;2022-12-07T01:59:25;13.35;;;9.50;;
17141;SDS011;32805;53.556;9.944;2022-12-07T02:01:53;14.52;;;8.70;;
17141;SDS011;32805;53.556;9.944;2022-12-07T02:04:23;12.98;;;8.93;;
17141;SDS011;32805;53.556;9.944;2022-12-07T02:06:51;16.10;;;9.38;;
17141;SDS011;32805;53.556;9.944;2022-12-07T02:09:22;15.25;;;8.77;;
17141;SDS011;32805;53.556;9.944;2022-12-07T02:11:49;12.00;;;8.05;;
17141;SDS011;32805;53.556;9.944;2022-12-07T02:14:18;14.77;;;8.23;;
17141;SDS011;32805;53.556;9.944;2022-12-07T02:16:47;11.75;;;7.63;;
17141;SDS011;32805;53.556;9.944;2022-12-07T02:19:38;10.35;;;7.60;;
17141;SDS011;32805;53.556;9.944;2022-12-07T02:22:32;13.75;;;8.00;;
17141;SDS011;32805;53.556;9.944;2022-12-07T02:25:18;10.40;;;7.28;;
17141;SDS011;32805;53.556;9.944;2022-12-07T02:27:58;13.73;;;7.95;;
17141;SDS011;32805;53.556;9.944;2022-12-07T02:30:33;9.77;;;6.75;;
17141;SDS011;32805;53.556;9.944;2022-12-07T02:33:03;11.38;;;7.13;;
17141;SDS011;32805;53.556;9.944;2022-12-07T02:35:36;10.35;;;5.68;;
17141;SDS011;32805;53.556;9.944;2022-12-07T02:38:08;13.25;;;6.57;;
17141;SDS011;32805;53.556;9.944;2022-12-07T02:40:42;11.43;;;6.18;;
17141;SDS011;32805;53.556;9.944;2022-12-07T02:43:16;8.57;;;5.55;;
17141;SDS011;32805;53.556;9.944;2022-12-07T02:45:48;7.60;;;4.78;;
17141;SDS011;32805;53.556;9.944;2022-12-07T02:48:19;7.53;;;4.85;;
17141;SDS011;32805;53.556;9.944;2022-12-07T02:50:48;8.43;;;5.03;;
17141;SDS011;32805;53.556;9.944;2022-12-07T02:53:30;9.48;;;3.63;;
17141;SDS011;32805;53.556;9.944;2022-12-07T02:55:59;9.35;;;4.15;;
17141;SDS011;32805;53.556;9.944;2022-12-07T02:58:32;8.82;;;3.63;;
17141;SDS011;32805;53.556;9.944;2022-12-07T03:01:17;4.38;;;3.00;;
17141;SDS011;32805;53.556;9.944;2022-12-07T03:03:54;3.70;;;2.47;;
17141;SDS011;32805;53.556;9.944;2022-12-07T03:06:31;5.50;;;2.78;;
17141;SDS011;32805;53.556;9.944;2022-12-07T03:09:04;5.45;;;3.03;;
17141;SDS011;32805;53.556;9.944;2022-12-07T03:11:40;5.18;;;2.72;;
17141;SDS011;32805;53.556;9.944;2022-12-07T03:14:15;5.25;;;2.53;;
17141;SDS011;32805;53.556;9.944;2022-12-07T03:16:49;7.18;;;3.47;;
17141;SDS011;32805;53.556;9.944;2022-12-07T03:19:21;8.57;;;3.00;;
17141;SDS011;32805;53.556;9.944;2022-12-07T03:21:53;3.63;;;2.28;;
17141;SDS011;32805;53.556;9.944;2022-12-07T03:24:26;4.65;;;2.20;;
17141;SDS011;32805;53.556;9.944;2022-12-07T03:26:58;5.63;;;2.35;;
17141;SDS011;32805;53.556;9.944;2022-12-07T03:29:30;8.70;;;3.05;;
17141;SDS011;32805;53.556;9.944;2022-12-07T03:32:03;5.45;;;2.75;;
17141;SDS011;32805;53.556;9.944;2022-12-07T03:34:36;4.63;;;3.03;;
17141;SDS011;32805;53.556;9.944;2022-12-07T03:37:10;9.73;;;4.25;;
17141;SDS011;32805;53.556;9.944;2022-12-07T03:39:44;6.57;;;3.30;;
17141;SDS011;32805;53.556;9.944;2022-12-07T03:42:17;4.00;;;2.00;;
17141;SDS011;32805;53.556;9.944;2022-12-07T03:44:45;5.80;;;2.30;;
17141;SDS011;32805;53.556;9.944;2022-12-07T03:47:16;5.95;;;3.15;;
17141;SDS011;32805;53.556;9.944;2022-12-07T03:49:53;6.90;;;2.28;;
17141;SDS011;32805;53.556;9.944;2022-12-07T03:52:29;3.47;;;2.05;;
17141;SDS011;32805;53.556;9.944;2022-12-07T03:55:03;7.30;;;2.30;;
17141;SDS011;32805;53.556;9.944;2022-12-07T03:57:36;6.32;;;2.10;;
17141;SDS011;32805;53.556;9.944;2022-12-07T04:00:07;3.78;;;1.90;;
17141;SDS011;32805;53.556;9.944;2022-12-07T04:02:41;2.55;;;1.63;;
17141;SDS011;32805;53.556;9.944;2022-12-07T04:05:10;5.22;;;2.30;;
17141;SDS011;32805;53.556;9.944;2022-12-07T04:07:38;11.57;;;4.88;;
17141;SDS011;32805;53.556;9.944;2022-12-07T04:10:08;7.03;;;3.38;;
17141;SDS011;32805;53.556;9.944;2022-12-07T04:12:37;7.25;;;3.20;;
17141;SDS011;32805;53.556;9.944;2022-12-07T04:15:05;2.50;;;1.75;;
17141;SDS011;32805;53.556;9.944;2022-12-07T04:17:34;6.05;;;1.92;;
17141;SDS011;32805;53.556;9.944;2022-12-07T04:20:05;5.95;;;2.67;;
17141;SDS011;32805;53.556;9.944;2022-12-07T04:22:33;5.35;;;2.40;;
17141;SDS011;32805;53.556;9.944;2022-12-07T04:25:01;6.05;;;2.00;;
17141;SDS011;32805;53.556;9.944;2022-12-07T04:27:32;3.75;;;1.95;;
17141;SDS011;32805;53.556;9.944;2022-12-07T04:30:00;5.60;;;1.90;;
17141;SDS011;32805;53.556;9.944;2022-12-07T04:32:28;3.97;;;1.90;;
17141;SDS011;32805;53.556;9.944;2022-12-07T04:34:56;4.55;;;2.50;;
17141;SDS011;32805;53.556;9.944;2022-12-07T04:37:25;5.25;;;2.33;;
17141;SDS011;32805;53.556;9.944;2022-12-07T04:39:53;6.00;;;2.05;;
17141;SDS011;32805;53.556;9.944;2022-12-07T04:42:21;3.28;;;2.03;;
17141;SDS011;32805;53.556;9.944;2022-12-07T04:44:49;3.70;;;2.00;;
17141;SDS011;32805;53.556;9.944;2022-12-07T04:47:17;6.30;;;2.78;;
17141;SDS011;32805;53.556;9.944;2022-12-07T04:49:45;2.60;;;2.00;;
17141;SDS011;32805;53.556;9.944;2022-12-07T04:52:13;4.60;;;2.17;;
17141;SDS011;32805;53.556;9.944;2022-12-07T04:54:42;3.85;;;2.28;;
17141;SDS011;32805;53.556;9.944;2022-12-07T04:57:11;6.45;;;2.22;;
17141;SDS011;32805;53.556;9.944;2022-12-07T04:59:39;5.18;;;2.33;;
17141;SDS011;32805;53.556;9.944;2022-12-07T05:02:11;4.43;;;2.35;;
17141;SDS011;32805;53.556;9.944;2022-12-07T05:04:39;5.95;;;2.35;;
17141;SDS011;32805;53.556;9.944;2022-12-07T05:07:07;6.10;;;3.40;;
17141;SDS011;32805;53.556;9.944;2022-12-07T05:09:35;9.25;;;2.50;;
17141;SDS011;32805;53.556;9.944;2022-12-07T05:12:04;4.53;;;2.80;;
17141;SDS011;32805;53.556;9.944;2022-12-07T05:14:32;6.90;;;1.92;;
17141;SDS011;32805;53.556;9.944;2022-12-07T05:17:00;4.38;;;1.92;;
17141;SDS011;32805;53.556;9.944;2022-12-07T05:19:28;5.68;;;2.90;;
17141;SDS011;32805;53.556;9.944;2022-12-07T05:21:56;4.32;;;2.10;;
17141;SDS011;32805;53.556;9.944;2022-12-07T05:24:24;3.88;;;2.13;;
17141;SDS011;32805;53.556;9.944;2022-12-07T05:26:52;2.30;;;1.85;;
17141;SDS011;32805;53.556;9.944;2022-12-07T05:29:21;4.82;;;3.00;;
17141;SDS011;32805;53.556;9.944;2022-12-07T05:31:49;3.05;;;1.98;;
17141;SDS011;32805;53.556;9.944;2022-12-07T05:34:17;3.65;;;2.65;;
17141;SDS011;32805;53.556;9.944;2022-12-07T05:36:45;4.03;;;2.03;;
17141;SDS011;32805;53.556;9.944;2022-12-07T05:39:13;3.63;;;2.20;;
17141;SDS011;32805;53.556;9.944;2022-12-07T05:41:41;5.72;;;2.78;;
17141;SDS011;32805;53.556;9.944;2022-12-07T05:44:28;2.65;;;2.30;;
17141;SDS011;32805;53.556;9.944;2022-12-07T05:46:56;3.60;;;2.33;;
17141;SDS011;32805;53.556;9.944;2022-12-07T05:49:24;3.10;;;1.73;;
17141;SDS011;32805;53.556;9.944;2022-12-07T05:51:52;3.90;;;2.20;;
17141;SDS011;32805;53.556;9.944;2022-12-07T05:54:20;2.88;;;2.28;;
17141;SDS011;32805;53.556;9.944;2022-12-07T05:56:48;2.78;;;2.13;;
17141;SDS011;32805;53.556;9.944;2022-12-07T05:59:15;4.55;;;2.35;;
17141;SDS011;32805;53.556;9.944;2022-12-07T06:01:50;4.28;;;2.05;;
17141;SDS011;32805;53.556;9.944;2022-12-07T06:04:18;2.20;;;2.00;;
17141;SDS011;32805;53.556;9.944;2022-12-07T06:06:46;5.40;;;2.17;;
17141;SDS011;32805;53.556;9.944;2022-12-07T06:09:14;2.58;;;1.92;;
17141;SDS011;32805;53.556;9.944;2022-12-07T06:11:42;2.95;;;2.00;;
17141;SDS011;32805;53.556;9.944;2022-12-07T06:14:28;3.58;;;1.92;;
17141;SDS011;32805;53.556;9.944;2022-12-07T06:17:07;4.22;;;2.13;;
17141;SDS011;32805;53.556;9.944;2022-12-07T06:19:35;2.00;;;1.70;;
17141;SDS011;32805;53.556;9.944;2022-12-07T06:22:05;5.25;;;2.20;;
17141;SDS011;32805;53.556;9.944;2022-12-07T06:24:34;5.32;;;2.53;;
17141;SDS011;32805;53.556;9.944;2022-12-07T06:27:02;5.10;;;2.15;;
17141;SDS011;32805;53.556;9.944;2022-12-07T06:29:30;3.53;;;1.88;;
17141;SDS011;32805;53.556;9.944;2022-12-07T06:31:58;4.97;;;2.10;;
17141;SDS011;32805;53.556;9.944;2022-12-07T06:34:29;5.88;;;1.70;;
17141;SDS011;32805;53.556;9.944;2022-12-07T06:36:57;2.33;;;1.60;;
17141;SDS011;32805;53.556;9.944;2022-12-07T06:39:25;3.38;;;2.15;;
17141;SDS011;32805;53.556;9.944;2022-12-07T06:41:57;3.10;;;1.88;;
17141;SDS011;32805;53.556;9.944;2022-12-07T06:44:25;3.47;;;1.95;;
17141;SDS011;32805;53.556;9.944;2022-12-07T06:46:55;2.85;;;2.08;;
17141;SDS011;32805;53.556;9.944;2022-12-07T06:49:47;4.32;;;1.90;;
17141;SDS011;32805;53.556;9.944;2022-12-07T06:52:15;7.22;;;3.20;;
17141;SDS011;32805;53.556;9.944;2022-12-07T06:54:45;7.53;;;2.17;;
17141;SDS011;32805;53.556;9.944;2022-12-07T06:57:13;5.60;;;2.42;;
17141;SDS011;32805;53.556;9.944;2022-12-07T06:59:41;4.22;;;2.05;;
17141;SDS011;32805;53.556;9.944;2022-12-07T07:02:09;6.55;;;2.10;;
17141;SDS011;32805;53.556;9.944;2022-12-07T07:04:40;3.05;;;1.65;;
17141;SDS011;32805;53.556;9.944;2022-12-07T07:07:10;2.95;;;1.77;;
17141;SDS011;32805;53.556;9.944;2022-12-07T07:09:39;2.90;;;1.77;;
17141;SDS011;32805;53.556;9.944;2022-12-07T07:12:08;5.28;;;1.90;;
17141;SDS011;32805;53.556;9.944;2022-12-07T07:14:36;3.75;;;2.30;;
17141;SDS011;32805;53.556;9.944;2022-12-07T07:17:04;4.47;;;2.50;;
17141;SDS011;32805;53.556;9.944;2022-12-07T07:19:32;5.30;;;2.15;;
17141;SDS011;32805;53.556;9.944;2022-12-07T07:22:12;2.95;;;1.60;;
17141;SDS011;32805;53.556;9.944;2022-12-07T07:24:44;5.10;;;2.22;;
17141;SDS011;32805;53.556;9.944;2022-12-07T07:27:12;2.00;;;1.45;;
17141;SDS011;32805;53.556;9.944;2022-12-07T07:29:40;5.13;;;1.83;;
17141;SDS011;32805;53.556;9.944;2022-12-07T07:32:08;5.00;;;1.63;;
17141;SDS011;32805;53.556;9.944;2022-12-07T07:34:36;3.05;;;1.55;;
17141;SDS011;32805;53.556;9.944;2022-12-07T07:37:04;2.90;;;1.30;;
17141;SDS011;32805;53.556;9.944;2022-12-07T07:39:33;3.50;;;1.40;;
17141;SDS011;32805;53.556;9.944;2022-12-07T07:42:01;3.70;;;1.58;;
17141;SDS011;32805;53.556;9.944;2022-12-07T07:44:36;4.57;;;1.52;;
17141;SDS011;32805;53.556;9.944;2022-12-07T07:47:10;1.90;;;1.58;;
17141;SDS011;32805;53.556;9.944;2022-12-07T07:50:27;4.47;;;1.60;;
17141;SDS011;32805;53.556;9.944;2022-12-07T07:53:20;4.18;;;1.85;;
17141;SDS011;32805;53.556;9.944;2022-12-07T07:59:45;3.13;;;1.08;;
17141;SDS011;32805;53.556;9.944;2022-12-07T08:02:57;3.45;;;1.20;;
17141;SDS011;32805;53.556;9.944;2022-12-07T08:05:44;4.13;;;1.65;;
17141;SDS011;32805;53.556;9.944;2022-12-07T08:08:35;2.40;;;1.00;;
17141;SDS011;32805;53.556;9.944;2022-12-07T08:11:30;6.38;;;1.13;;
17141;SDS011;32805;53.556;9.944;2022-12-07T08:14:34;4.88;;;1.23;;
17141;SDS011;32805;53.556;9.944;2022-12-07T08:17:16;4.40;;;1.27;;
17141;SDS011;32805;53.556;9.944;2022-12-07T08:24:49;1.95;;;1.08;;
17141;SDS011;32805;53.556;9.944;2022-12-07T08:28:52;3.20;;;1.38;;
17141;SDS011;32805;53.556;9.944;2022-12-07T08:32:18;1.35;;;0.88;;
17141;SDS011;32805;53.556;9.944;2022-12-07T08:35:59;1.00;;;0.95;;
17141;SDS011;32805;53.556;9.944;2022-12-07T08:39:50;3.67;;;1.35;;
17141;SDS011;32805;53.556;9.944;2022-12-07T08:43:46;1.60;;;1.08;;
17141;SDS011;32805;53.556;9.944;2022-12-07T08:46:17;3.80;;;1.00;;
17141;SDS011;32805;53.556;9.944;2022-12-07T08:48:52;3.10;;;0.90;;
17141;SDS011;32805;53.556;9.944;2022-12-07T08:51:53;4.13;;;1.20;;
17141;SDS011;32805;53.556;9.944;2022-12-07T08:55:03;3.00;;;1.30;;
17141;SDS011;32805;53.556;9.944;2022-12-07T08:58:12;3.40;;;1.42;;
17141;SDS011;32805;53.556;9.944;2022-12-07T09:01:06;3.97;;;1.40;;
17141;SDS011;32805;53.556;9.944;2022-12-07T09:03:36;4.60;;;1.40;;
17141;SDS011;32805;53.556;9.944;2022-12-07T09:12:42;3.35;;;1.73;;
17141;SDS011;32805;53.556;9.944;2022-12-07T09:15:19;3.67;;;1.58;;
17141;SDS011;32805;53.556;9.944;2022-12-07T09:17:49;2.05;;;1.40;;
17141;SDS011;32805;53.556;9.944;2022-12-07T09:20:46;3.63;;;1.70;;
17141;SDS011;32805;53.556;9.944;2022-12-07T09:23:14;6.07;;;1.75;;
17141;SDS011;32805;53.556;9.944;2022-12-07T09:25:46;3.17;;;1.50;;
17141;SDS011;32805;53.556;9.944;2022-12-07T09:28:13;3.90;;;1.30;;
17141;SDS011;32805;53.556;9.944;2022-12-07T09:30:45;6.07;;;1.52;;
17141;SDS011;32805;53.556;9.944;2022-12-07T09:33:47;3.42;;;1.60;;
17141;SDS011;32805;53.556;9.944;2022-12-07T09:36:20;4.85;;;1.52;;
17141;SDS011;32805;53.556;9.944;2022-12-07T09:38:48;5.30;;;1.58;;
17141;SDS011;32805;53.556;9.944;2022-12-07T09:41:17;3.05;;;1.60;;
17141;SDS011;32805;53.556;9.944;2022-12-07T09:43:45;2.63;;;1.13;;
17141;SDS011;32805;53.556;9.944;2022-12-07T09:46:14;4.30;;;1.40;;
17141;SDS011;32805;53.556;9.944;2022-12-07T09:48:44;4.80;;;1.42;;
17141;SDS011;32805;53.556;9.944;2022-12-07T09:51:14;2.55;;;1.20;;
17141;SDS011;32805;53.556;9.944;2022-12-07T09:53:49;3.95;;;1.50;;
17141;SDS011;32805;53.556;9.944;2022-12-07T09:56:20;3.65;;;1.60;;
17141;SDS011;32805;53.556;9.944;2022-12-07T09:58:50;5.95;;;1.60;;
17141;SDS011;32805;53.556;9.944;2022-12-07T10:01:21;5.63;;;1.50;;
17141;SDS011;32805;53.556;9.944;2022-12-07T10:03:50;3.65;;;1.00;;
17141;SDS011;32805;53.556;9.944;2022-12-07T10:06:19;1.45;;;1.10;;
17141;SDS011;32805;53.556;9.944;2022-12-07T10:08:46;2.08;;;1.38;;
17141;SDS011;32805;53.556;9.944;2022-12-07T10:11:15;11.10;;;2.60;;
17141;SDS011;32805;53.556;9.944;2022-12-07T10:13:45;4.70;;;2.15;;
17141;SDS011;32805;53.556;9.944;2022-12-07T10:16:31;3.88;;;1.35;;
17141;SDS011;32805;53.556;9.944;2022-12-07T10:19:17;2.60;;;1.17;;
17141;SDS011;32805;53.556;9.944;2022-12-07T10:22:03;2.55;;;1.27;;
17141;SDS011;32805;53.556;9.944;2022-12-07T10:24:42;2.90;;;1.10;;
17141;SDS011;32805;53.556;9.944;2022-12-07T10:27:17;4.68;;;1.10;;
17141;SDS011;32805;53.556;9.944;2022-12-07T10:29:49;3.88;;;1.10;;
17141;SDS011;32805;53.556;9.944;2022-12-07T10:32:29;1.30;;;0.75;;
17141;SDS011;32805;53.556;9.944;2022-12-07T10:35:18;1.73;;;0.60;;
17141;SDS011;32805;53.556;9.944;2022-12-07T10:37:48;4.63;;;1.13;;
17141;SDS011;32805;53.556;9.944;2022-12-07T10:40:23;1.67;;;0.70;;
17141;SDS011;32805;53.556;9.944;2022-12-07T10:43:01;1.17;;;0.82;;
17141;SDS011;32805;53.556;9.944;2022-12-07T10:45:32;2.97;;;1.05;;
17141;SDS011;32805;53.556;9.944;2022-12-07T10:48:08;6.57;;;1.08;;
17141;SDS011;32805;53.556;9.944;2022-12-07T10:50:52;1.40;;;0.82;;
17141;SDS011;32805;53.556;9.944;2022-12-07T10:53:35;2.92;;;1.42;;
17141;SDS011;32805;53.556;9.944;2022-12-07T10:56:13;4.20;;;0.80;;
17141;SDS011;32805;53.556;9.944;2022-12-07T10:59:02;2.70;;;0.80;;
17141;SDS011;32805;53.556;9.944;2022-12-07T11:01:45;2.80;;;1.00;;
17141;SDS011;32805;53.556;9.944;2022-12-07T11:04:21;2.08;;;0.70;;
17141;SDS011;32805;53.556;9.944;2022-12-07T11:06:57;2.42;;;0.98;;
17141;SDS011;32805;53.556;9.944;2022-12-07T11:09:47;2.95;;;1.00;;
17141;SDS011;32805;53.556;9.944;2022-12-07T11:12:38;2.60;;;1.05;;
17141;SDS011;32805;53.556;9.944;2022-12-07T11:15:22;4.57;;;1.30;;
17141;SDS011;32805;53.556;9.944;2022-12-07T11:17:56;2.92;;;0.90;;
17141;SDS011;32805;53.556;9.944;2022-12-07T11:20:35;1.65;;;0.70;;
17141;SDS011;32805;53.556;9.944;2022-12-07T11:23:12;6.00;;;1.15;;
17141;SDS011;32805;53.556;9.944;2022-12-07T11:25:49;4.18;;;1.33;;
17141;SDS011;32805;53.556;9.944;2022-12-07T11:28:35;5.07;;;1.40;;
17141;SDS011;32805;53.556;9.944;2022-12-07T11:31:15;9.55;;;1.40;;
17141;SDS011;32805;53.556;9.944;2022-12-07T11:33:57;3.38;;;1.08;;
17141;SDS011;32805;53.556;9.944;2022-12-07T11:36:33;3.92;;;1.30;;
17141;SDS011;32805;53.556;9.944;2022-12-07T11:39:09;3.03;;;1.20;;
17141;SDS011;32805;53.556;9.944;2022-12-07T11:41:50;4.13;;;1.00;;
17141;SDS011;32805;53.556;9.944;2022-12-07T11:44:25;5.45;;;1.48;;
17141;SDS011;32805;53.556;9.944;2022-12-07T11:46:58;7.63;;;1.20;;
17141;SDS011;32805;53.556;9.944;2022-12-07T11:49:39;6.18;;;1.63;;
17141;SDS011;32805;53.556;9.944;2022-12-07T11:52:12;10.00;;;1.73;;
17141;SDS011;32805;53.556;9.944;2022-12-07T11:54:45;3.20;;;1.20;;
17141;SDS011;32805;53.556;9.944;2022-12-07T11:57:17;4.30;;;1.38;;
17141;SDS011;32805;53.556;9.944;2022-12-07T11:59:48;4.00;;;1.38;;
17141;SDS011;32805;53.556;9.944;2022-12-07T12:02:20;4.60;;;1.35;;
17141;SDS011;32805;53.556;9.944;2022-12-07T12:04:55;2.45;;;1.20;;
17141;SDS011;32805;53.556;9.944;2022-12-07T12:07:29;4.82;;;1.80;;
17141;SDS011;32805;53.556;9.944;2022-12-07T12:10:19;7.10;;;1.50;;
17141;SDS011;32805;53.556;9.944;2022-12-07T12:12:57;3.40;;;1.20;;
17141;SDS011;32805;53.556;9.944;2022-12-07T12:16:00;3.13;;;1.10;;
17141;SDS011;32805;53.556;9.944;2022-12-07T12:21:34;5.10;;;1.02;;
17141;SDS011;32805;53.556;9.944;2022-12-07T12:24:04;6.40;;;1.55;;
17141;SDS011;32805;53.556;9.944;2022-12-07T12:26:37;5.57;;;1.40;;
17141;SDS011;32805;53.556;9.944;2022-12-07T12:29:06;5.63;;;1.10;;
17141;SDS011;32805;53.556;9.944;2022-12-07T12:32:04;6.47;;;1.25;;
17141;SDS011;32805;53.556;9.944;2022-12-07T12:34:38;3.83;;;1.05;;
17141;SDS011;32805;53.556;9.944;2022-12-07T12:58:31;5.35;;;1.13;;
17141;SDS011;32805;53.556;9.944;2022-12-07T13:25:26;5.70;;;1.50;;
17141;SDS011;32805;53.556;9.944;2022-12-07T13:28:01;8.52;;;1.27;;
17141;SDS011;32805;53.556;9.944;2022-12-07T13:30:38;7.72;;;1.05;;
17141;SDS011;32805;53.556;9.944;2022-12-07T13:33:12;3.75;;;1.25;;
17141;SDS011;32805;53.556;9.944;2022-12-07T13:35:42;1.80;;;0.80;;
17141;SDS011;32805;53.556;9.944;2022-12-07T13:38:16;3.20;;;1.15;;
17141;SDS011;32805;53.556;9.944;2022-12-07T13:41:10;7.85;;;1.20;;
17141;SDS011;32805;53.556;9.944;2022-12-07T13:43:48;7.43;;;2.60;;
17141;SDS011;32805;53.556;9.944;2022-12-07T13:46:19;8.43;;;1.20;;
17141;SDS011;32805;53.556;9.944;2022-12-07T13:48:53;2.72;;;0.90;;
17141;SDS011;32805;53.556;9.944;2022-12-07T13:51:22;5.72;;;1.00;;
17141;SDS011;32805;53.556;9.944;2022-12-07T13:53:52;3.95;;;0.85;;
17141;SDS011;32805;53.556;9.944;2022-12-07T13:56:22;2.75;;;1.20;;
17141;SDS011;32805;53.556;9.944;2022-12-07T13:58:55;4.60;;;0.90;;
17141;SDS011;32805;53.556;9.944;2022-12-07T14:01:23;2.50;;;1.27;;
17141;SDS011;32805;53.556;9.944;2022-12-07T14:03:52;4.57;;;1.30;;
17141;SDS011;32805;53.556;9.944;2022-12-07T14:06:22;2.58;;;0.90;;
17141;SDS011;32805;53.556;9.944;2022-12-07T14:09:06;7.32;;;0.95;;
17141;SDS011;32805;53.556;9.944;2022-12-07T14:11:36;2.42;;;1.10;;
17141;SDS011;32805;53.556;9.944;2022-12-07T14:14:05;3.05;;;0.70;;
17141;SDS011;32805;53.556;9.944;2022-12-07T14:16:33;5.28;;;1.65;;
17141;SDS011;32805;53.556;9.944;2022-12-07T14:19:03;3.83;;;0.82;;
17141;SDS011;32805;53.556;9.944;2022-12-07T14:21:33;4.60;;;0.93;;
17141;SDS011;32805;53.556;9.944;2022-12-07T14:24:09;4.38;;;0.85;;
17141;SDS011;32805;53.556;9.944;2022-12-07T14:26:40;5.47;;;0.98;;
17141;SDS011;32805;53.556;9.944;2022-12-07T14:32:14;0.93;;;0.65;;
17141;SDS011;32805;53.556;9.944;2022-12-07T14:34:53;1.70;;;0.85;;
17141;SDS011;32805;53.556;9.944;2022-12-07T14:37:22;3.63;;;1.08;;
17141;SDS011;32805;53.556;9.944;2022-12-07T14:39:51;2.90;;;1.08;;
17141;SDS011;32805;53.556;9.944;2022-12-07T14:42:20;4.13;;;1.00;;
17141;SDS011;32805;53.556;9.944;2022-12-07T14:44:50;4.20;;;0.93;;
17141;SDS011;32805;53.556;9.944;2022-12-07T14:47:18;4.40;;;0.88;;
17141;SDS011;32805;53.556;9.944;2022-12-07T14:50:06;2.67;;;1.30;;
17141;SDS011;32805;53.556;9.944;2022-12-07T14:52:35;3.95;;;1.33;;
17141;SDS011;32805;53.556;9.944;2022-12-07T14:55:24;5.13;;;1.10;;
17141;SDS011;32805;53.556;9.944;2022-12-07T14:57:55;3.10;;;0.77;;
17141;SDS011;32805;53.556;9.944;2022-12-07T15:00:24;5.53;;;1.30;;
17141;SDS011;32805;53.556;9.944;2022-12-07T15:02:54;4.35;;;1.52;;
17141;SDS011;32805;53.556;9.944;2022-12-07T15:05:27;2.80;;;1.15;;
17141;SDS011;32805;53.556;9.944;2022-12-07T15:07:55;2.80;;;1.35;;
17141;SDS011;32805;53.556;9.944;2022-12-07T15:10:23;4.15;;;1.13;;
17141;SDS011;32805;53.556;9.944;2022-12-07T15:12:57;5.65;;;1.45;;
17141;SDS011;32805;53.556;9.944;2022-12-07T15:15:45;2.45;;;1.08;;
17141;SDS011;32805;53.556;9.944;2022-12-07T15:18:14;1.50;;;0.90;;
17141;SDS011;32805;53.556;9.944;2022-12-07T15:20:42;3.13;;;1.48;;
17141;SDS011;32805;53.556;9.944;2022-12-07T15:23:10;4.35;;;1.05;;
17141;SDS011;32805;53.556;9.944;2022-12-07T15:25:39;4.35;;;1.13;;
17141;SDS011;32805;53.556;9.944;2022-12-07T15:28:09;6.05;;;1.63;;
17141;SDS011;32805;53.556;9.944;2022-12-07T15:30:36;2.72;;;1.00;;
17141;SDS011;32805;53.556;9.944;2022-12-07T15:33:05;3.55;;;1.80;;
17141;SDS011;32805;53.556;9.944;2022-12-07T15:35:33;5.07;;;1.40;;
17141;SDS011;32805;53.556;9.944;2022-12-07T15:38:01;2.92;;;1.48;;
17141;SDS011;32805;53.556;9.944;2022-12-07T15:40:29;2.72;;;1.30;;
17141;SDS011;32805;53.556;9.944;2022-12-07T15:42:57;2.33;;;1.70;;
17141;SDS011;32805;53.556;9.944;2022-12-07T15:45:29;1.50;;;0.93;;
17141;SDS011;32805;53.556;9.944;2022-12-07T15:47:56;4.93;;;1.50;;
17141;SDS011;32805;53.556;9.944;2022-12-07T15:50:44;1.92;;;1.15;;
17141;SDS011;32805;53.556;9.944;2022-12-07T15:53:11;3.72;;;1.20;;
17141;SDS011;32805;53.556;9.944;2022-12-07T15:55:39;2.65;;;1.45;;
17141;SDS011;32805;53.556;9.944;2022-12-07T15:58:07;3.55;;;1.10;;
17141;SDS011;32805;53.556;9.944;2022-12-07T16:00:36;4.30;;;1.88;;
17141;SDS011;32805;53.556;9.944;2022-12-07T16:03:04;4.25;;;2.00;;
17141;SDS011;32805;53.556;9.944;2022-12-07T16:05:31;7.38;;;2.90;;
17141;SDS011;32805;53.556;9.944;2022-12-07T16:07:59;4.85;;;1.83;;
17141;SDS011;32805;53.556;9.944;2022-12-07T16:10:27;5.03;;;2.03;;
17141;SDS011;32805;53.556;9.944;2022-12-07T16:12:55;4.68;;;1.77;;
17141;SDS011;32805;53.556;9.944;2022-12-07T16:15:22;5.85;;;2.50;;
17141;SDS011;32805;53.556;9.944;2022-12-07T16:17:52;8.13;;;2.92;;
17141;SDS011;32805;53.556;9.944;2022-12-07T16:20:19;5.22;;;2.45;;
17141;SDS011;32805;53.556;9.944;2022-12-07T16:22:47;10.98;;;2.85;;
17141;SDS011;32805;53.556;9.944;2022-12-07T16:25:18;6.78;;;2.80;;
17141;SDS011;32805;53.556;9.944;2022-12-07T16:27:46;9.93;;;3.63;;
17141;SDS011;32805;53.556;9.944;2022-12-07T16:30:14;9.32;;;3.40;;
17141;SDS011;32805;53.556;9.944;2022-12-07T16:32:42;9.88;;;3.72;;
17141;SDS011;32805;53.556;9.944;2022-12-07T16:35:11;5.70;;;3.00;;